Time;durP1;ratioP1;P1;durP2;ratioP2;P2;SDS_P1;SDS_P2;PMS_P1;PMS_P2;Temp;Humidity;BMP_temperature;BMP_pressure;BME280_temperature;BME280_humidity;BME280_pressure;Samples;Min_cycle;Max_cycle;Signal;HPM_P1;HPM_P2
2021/09/12 00:01:19;;;;;;;7.40;2.90;;;16.20;73.40;;;;;;5038486;28;20171;-70
2021/09/12 00:03:46;;;;;;;4.57;2.95;;;16.20;73.60;;;;;;5039784;28;20060;-69
2021/09/12 00:06:13;;;;;;;5.90;3.05;;;16.10;73.20;;;;;;5040538;28;20049;-71
2021/09/12 00:08:40;;;;;;;4.47;2.72;;;16.00;74.10;;;;;;5040062;28;20137;-69
2021/09/12 00:11:07;;;;;;;4.60;2.65;;;16.00;74.30;;;;;;5040107;28;20122;-69
2021/09/12 00:13:34;;;;;;;5.25;2.55;;;15.90;74.30;;;;;;5038472;28;20080;-72
2021/09/12 00:16:01;;;;;;;5.43;2.60;;;15.90;74.40;;;;;;5040265;28;20072;-70
2021/09/12 00:18:27;;;;;;;5.15;2.90;;;15.90;74.50;;;;;;5039567;28;20516;-70
2021/09/12 00:20:54;;;;;;;6.80;2.70;;;15.90;74.60;;;;;;5040529;28;20136;-70
2021/09/12 00:23:21;;;;;;;4.63;2.78;;;15.90;74.70;;;;;;5038904;28;20096;-70
2021/09/12 00:25:48;;;;;;;4.63;2.67;;;15.90;74.70;;;;;;5039302;28;20095;-70
2021/09/12 00:28:14;;;;;;;5.38;2.42;;;15.80;74.60;;;;;;5038886;28;20131;-70
2021/09/12 00:30:41;;;;;;;4.68;2.47;;;15.80;75.00;;;;;;5039157;28;20148;-71
2021/09/12 00:33:08;;;;;;;5.43;2.70;;;15.80;75.30;;;;;;5038557;28;20140;-70
2021/09/12 00:35:35;;;;;;;5.80;2.60;;;15.80;75.10;;;;;;5039437;28;20961;-71
2021/09/12 00:38:01;;;;;;;10.20;4.25;;;15.80;75.40;;;;;;5039904;28;20079;-71
2021/09/12 00:40:28;;;;;;;6.00;2.70;;;15.70;75.60;;;;;;5054884;28;20053;-71
2021/09/12 00:42:55;;;;;;;5.20;2.80;;;15.70;75.70;;;;;;5040775;28;20496;-71
2021/09/12 00:45:22;;;;;;;4.38;2.80;;;15.60;75.10;;;;;;5042796;28;20172;-72
2021/09/12 00:47:48;;;;;;;5.78;2.90;;;15.60;75.90;;;;;;5043137;28;20140;-70
2021/09/12 00:50:15;;;;;;;7.97;2.72;;;15.50;75.80;;;;;;5040108;28;20037;-71
2021/09/12 00:52:46;;;;;;;5.60;2.97;;;15.50;76.10;;;;;;5039997;28;20131;-70
2021/09/12 00:55:13;;;;;;;4.38;2.42;;;15.40;77.00;;;;;;5041862;28;20049;-72
2021/09/12 00:57:44;;;;;;;4.93;2.30;;;15.30;77.10;;;;;;5024385;28;20135;-72
2021/09/12 01:00:12;;;;;;;4.65;2.30;;;15.30;77.60;;;;;;5035022;28;20694;-72
2021/09/12 01:02:39;;;;;;;6.78;2.90;;;15.30;77.20;;;;;;5038575;28;20060;-69
2021/09/12 01:05:10;;;;;;;6.40;2.70;;;15.30;77.30;;;;;;5018467;28;20115;-70
2021/09/12 01:07:38;;;;;;;3.80;2.25;;;15.20;77.60;;;;;;5022381;28;20053;-70
2021/09/12 01:10:09;;;;;;;4.72;2.53;;;15.20;78.00;;;;;;5029573;28;20139;-70
2021/09/12 01:12:36;;;;;;;4.72;2.38;;;15.10;77.30;;;;;;5037440;28;20044;-70
2021/09/12 01:15:04;;;;;;;4.70;2.38;;;15.10;77.60;;;;;;5023970;28;20111;-72
2021/09/12 01:17:31;;;;;;;4.00;2.10;;;15.10;78.80;;;;;;5021304;28;20102;-70
2021/09/12 01:19:59;;;;;;;3.15;2.38;;;15.00;78.50;;;;;;5025308;28;20561;-70
2021/09/12 01:22:27;;;;;;;4.68;2.67;;;15.00;78.70;;;;;;5042039;28;20037;-71
2021/09/12 01:24:54;;;;;;;5.05;2.75;;;14.90;78.90;;;;;;5024312;28;20053;-70
2021/09/12 01:27:22;;;;;;;6.43;2.80;;;15.00;79.10;;;;;;5033273;28;20046;-71
2021/09/12 01:29:49;;;;;;;6.97;2.60;;;15.00;79.20;;;;;;5030377;28;20115;-71
2021/09/12 01:32:16;;;;;;;6.30;2.85;;;15.00;79.20;;;;;;5038634;28;20080;-67
2021/09/12 01:34:43;;;;;;;4.40;2.05;;;15.10;79.10;;;;;;5038925;28;20048;-71
2021/09/12 01:37:11;;;;;;;6.47;2.33;;;15.10;78.90;;;;;;5052857;28;20083;-70
2021/09/12 01:39:38;;;;;;;4.15;2.20;;;15.10;78.80;;;;;;5044068;28;20046;-69
2021/09/12 01:42:05;;;;;;;3.22;2.50;;;15.10;78.90;;;;;;5032241;28;20485;-71
2021/09/12 01:44:32;;;;;;;5.95;2.58;;;15.10;79.30;;;;;;5034513;28;20155;-70
2021/09/12 01:47:00;;;;;;;5.97;2.42;;;15.10;79.70;;;;;;5035135;28;20100;-71
2021/09/12 01:49:27;;;;;;;3.25;2.13;;;15.10;78.80;;;;;;5033249;28;20084;-70
2021/09/12 01:51:54;;;;;;;4.20;2.05;;;15.10;79.40;;;;;;5028155;28;21437;-70
2021/09/12 01:54:20;;;;;;;4.13;2.55;;;15.10;79.80;;;;;;5039992;28;20073;-74
2021/09/12 01:56:47;;;;;;;6.35;2.78;;;15.10;79.40;;;;;;5035032;28;20045;-71
2021/09/12 01:59:14;;;;;;;7.32;2.42;;;15.10;79.00;;;;;;5036168;28;20081;-72
2021/09/12 02:01:41;;;;;;;5.80;2.75;;;15.10;79.50;;;;;;5027178;28;20049;-71
2021/09/12 02:04:08;;;;;;;3.58;2.13;;;15.10;80.00;;;;;;5027894;28;20041;-71
2021/09/12 02:06:35;;;;;;;5.43;2.30;;;15.00;79.80;;;;;;5024291;28;20087;-71
2021/09/12 02:09:01;;;;;;;6.38;2.47;;;15.00;79.80;;;;;;5023228;28;20069;-71
2021/09/12 02:11:28;;;;;;;4.30;2.20;;;14.90;80.00;;;;;;5023098;28;20188;-71
2021/09/12 02:13:55;;;;;;;5.95;2.55;;;14.90;79.90;;;;;;5030040;28;20073;-71
2021/09/12 02:16:22;;;;;;;4.40;2.25;;;14.90;80.20;;;;;;5028299;28;20087;-70
2021/09/12 02:18:49;;;;;;;5.90;3.03;;;14.80;80.60;;;;;;5022841;28;20073;-71
2021/09/12 02:21:16;;;;;;;5.32;2.45;;;14.90;80.60;;;;;;5023427;28;20128;-71
2021/09/12 02:23:43;;;;;;;4.53;2.17;;;14.90;80.50;;;;;;5023254;28;20103;-70
2021/09/12 02:26:09;;;;;;;8.90;3.47;;;14.80;80.50;;;;;;5028240;28;20462;-71
2021/09/12 02:28:36;;;;;;;8.27;2.75;;;14.80;80.60;;;;;;5030947;28;20081;-71
2021/09/12 02:31:03;;;;;;;5.45;2.25;;;14.80;81.00;;;;;;5025827;28;20076;-70
2021/09/12 02:33:30;;;;;;;8.40;2.70;;;14.70;81.10;;;;;;5029487;28;20046;-71
2021/09/12 02:35:57;;;;;;;4.07;2.47;;;14.70;81.30;;;;;;5039366;28;20045;-71
2021/09/12 02:38:23;;;;;;;3.75;2.50;;;14.70;81.20;;;;;;5046092;28;20103;-71
2021/09/12 02:40:50;;;;;;;9.85;3.08;;;14.70;80.90;;;;;;5051607;28;20495;-71
2021/09/12 02:43:17;;;;;;;7.05;2.35;;;14.70;81.10;;;;;;5043929;28;20135;-70
2021/09/12 02:45:44;;;;;;;3.28;2.33;;;14.70;81.20;;;;;;5044077;28;20127;-71
2021/09/12 02:48:10;;;;;;;6.93;2.50;;;14.60;81.20;;;;;;5042856;28;20079;-70
2021/09/12 02:50:37;;;;;;;5.00;2.88;;;14.60;81.50;;;;;;5045088;28;20486;-71
2021/09/12 02:53:04;;;;;;;3.80;2.45;;;14.60;81.60;;;;;;5042704;28;20139;-70
2021/09/12 02:55:31;;;;;;;5.97;2.70;;;14.60;81.80;;;;;;5044089;28;20102;-71
2021/09/12 02:57:58;;;;;;;5.13;3.15;;;14.60;81.90;;;;;;5043959;28;20132;-70
2021/09/12 03:00:24;;;;;;;6.15;3.42;;;14.50;81.90;;;;;;5044675;28;20783;-70
2021/09/12 03:02:51;;;;;;;6.05;3.35;;;14.50;81.70;;;;;;5045250;28;20132;-70
2021/09/12 03:05:19;;;;;;;11.50;3.20;;;14.50;81.50;;;;;;5046590;28;20056;-71
2021/09/12 03:07:48;;;;;;;3.65;2.55;;;14.40;82.30;;;;;;5046868;28;20519;-70
2021/09/12 03:10:15;;;;;;;4.32;2.40;;;14.40;81.50;;;;;;5047745;28;20135;-70
2021/09/12 03:12:41;;;;;;;5.70;2.40;;;14.40;81.70;;;;;;5047543;28;20099;-70
2021/09/12 03:15:08;;;;;;;4.63;2.40;;;14.30;82.00;;;;;;5047569;28;20087;-70
2021/09/12 03:17:35;;;;;;;4.70;2.40;;;14.30;81.70;;;;;;5046239;28;20049;-70
2021/09/12 03:20:02;;;;;;;5.50;3.00;;;14.20;82.00;;;;;;5047531;28;20069;-70
2021/09/12 03:22:29;;;;;;;4.35;2.65;;;14.20;82.40;;;;;;5047115;28;20083;-70
2021/09/12 03:24:55;;;;;;;6.45;2.55;;;14.20;82.40;;;;;;5048239;28;20092;-71
2021/09/12 03:27:22;;;;;;;7.05;2.42;;;14.20;82.30;;;;;;5046854;28;20044;-71
2021/09/12 03:29:49;;;;;;;4.45;2.40;;;14.20;82.30;;;;;;5048476;28;20139;-70
2021/09/12 03:32:16;;;;;;;3.67;2.55;;;14.30;82.70;;;;;;5045842;28;20136;-71
2021/09/12 03:34:42;;;;;;;7.10;2.47;;;14.20;82.30;;;;;;5043845;28;20068;-70
2021/09/12 03:37:09;;;;;;;8.60;2.95;;;14.20;82.40;;;;;;5047094;28;20132;-71
2021/09/12 03:39:36;;;;;;;4.15;2.40;;;14.20;82.70;;;;;;5029944;28;20091;-70
2021/09/12 03:42:03;;;;;;;4.57;2.72;;;14.10;82.70;;;;;;5046184;28;20132;-71
2021/09/12 03:44:29;;;;;;;7.13;2.72;;;14.10;83.30;;;;;;5047201;28;20072;-71
2021/09/12 03:46:56;;;;;;;6.18;2.80;;;14.10;83.30;;;;;;5046652;28;20132;-70
2021/09/12 03:49:23;;;;;;;8.93;3.67;;;14.10;83.30;;;;;;5046663;28;20088;-70
2021/09/12 03:51:49;;;;;;;4.90;2.47;;;14.10;83.00;;;;;;5046405;28;20081;-70
2021/09/12 03:54:16;;;;;;;4.47;2.70;;;14.10;83.30;;;;;;5046627;28;20482;-71
2021/09/12 03:56:43;;;;;;;6.00;2.85;;;14.20;83.10;;;;;;5028216;28;20099;-71
2021/09/12 03:59:10;;;;;;;4.68;2.70;;;14.20;83.40;;;;;;5047382;28;20481;-70
2021/09/12 04:01:36;;;;;;;4.18;2.58;;;14.10;83.20;;;;;;5045702;28;20436;-70
2021/09/12 04:04:04;;;;;;;3.72;3.10;;;14.10;83.60;;;;;;5046161;28;20041;-70
2021/09/12 04:06:30;;;;;;;4.60;2.50;;;14.10;83.70;;;;;;5046082;28;20106;-71
2021/09/12 04:08:57;;;;;;;8.25;2.95;;;14.20;84.10;;;;;;5046343;28;20119;-70
2021/09/12 04:11:24;;;;;;;5.95;2.95;;;14.20;84.00;;;;;;5045799;28;20091;-70
2021/09/12 04:13:51;;;;;;;5.38;2.90;;;14.30;83.80;;;;;;5046960;28;20080;-70
2021/09/12 04:16:17;;;;;;;4.88;3.13;;;14.30;83.50;;;;;;5046116;28;20073;-70
2021/09/12 04:18:44;;;;;;;4.60;2.80;;;14.30;83.50;;;;;;5048124;28;20645;-71
2021/09/12 04:21:11;;;;;;;7.35;3.15;;;14.30;83.60;;;;;;5049199;28;20080;-70
2021/09/12 04:23:38;;;;;;;8.23;2.97;;;14.40;84.20;;;;;;5049914;28;20103;-70
2021/09/12 04:26:04;;;;;;;5.15;2.60;;;14.40;83.90;;;;;;5050611;28;20500;-70
2021/09/12 04:28:31;;;;;;;4.53;2.80;;;14.40;83.90;;;;;;5047842;28;20528;-70
2021/09/12 04:30:58;;;;;;;7.93;3.00;;;14.50;83.90;;;;;;5044700;28;20136;-70
2021/09/12 04:33:24;;;;;;;6.43;3.58;;;14.40;83.60;;;;;;5045510;28;20136;-70
2021/09/12 04:35:51;;;;;;;5.80;3.10;;;14.50;83.90;;;;;;5046272;28;20055;-70
2021/09/12 04:38:18;;;;;;;7.15;2.60;;;14.50;83.90;;;;;;5043996;28;20100;-70
2021/09/12 04:40:45;;;;;;;7.55;2.63;;;14.50;83.80;;;;;;5040176;28;20125;-70
2021/09/12 04:43:11;;;;;;;7.80;3.08;;;14.40;84.00;;;;;;5040662;28;20133;-70
2021/09/12 04:45:39;;;;;;;9.02;3.25;;;14.40;84.30;;;;;;5043194;28;20088;-70
2021/09/12 04:48:05;;;;;;;6.85;2.83;;;14.40;84.60;;;;;;5039006;28;20140;-69
2021/09/12 04:50:32;;;;;;;8.52;3.42;;;14.50;84.50;;;;;;5031282;28;20809;-70
2021/09/12 04:52:59;;;;;;;5.97;3.20;;;14.60;84.50;;;;;;5030562;28;20099;-70
2021/09/12 04:55:26;;;;;;;7.88;3.03;;;14.60;84.00;;;;;;5036579;28;20076;-70
2021/09/12 04:57:52;;;;;;;6.47;3.35;;;14.60;84.10;;;;;;5040392;28;20103;-70
2021/09/12 05:00:19;;;;;;;5.50;3.33;;;14.60;84.00;;;;;;5040325;28;20106;-70
2021/09/12 05:02:47;;;;;;;7.30;3.33;;;14.60;83.90;;;;;;5041296;28;20160;-70
2021/09/12 05:05:15;;;;;;;4.88;2.88;;;14.50;83.70;;;;;;5040123;28;20041;-70
2021/09/12 05:07:42;;;;;;;7.38;4.40;;;14.50;84.00;;;;;;5041471;28;20168;-70
2021/09/12 05:10:09;;;;;;;6.25;3.22;;;14.40;84.30;;;;;;5041380;28;20128;-70
2021/09/12 05:12:36;;;;;;;9.20;3.58;;;14.40;84.30;;;;;;5040759;28;20132;-70
2021/09/12 05:15:03;;;;;;;7.30;2.83;;;14.30;84.40;;;;;;5055604;28;20145;-69
2021/09/12 05:17:30;;;;;;;5.82;3.50;;;14.30;84.60;;;;;;5022485;28;20587;-70
2021/09/12 05:19:57;;;;;;;5.05;2.67;;;14.20;84.50;;;;;;5039967;28;20084;-70
2021/09/12 05:22:24;;;;;;;8.65;3.40;;;14.20;84.70;;;;;;5040938;28;20084;-71
2021/09/12 05:24:50;;;;;;;13.35;3.45;;;14.20;84.90;;;;;;5040993;28;20548;-71
2021/09/12 05:27:17;;;;;;;7.32;3.05;;;14.20;84.90;;;;;;5040238;28;20132;-70
2021/09/12 05:29:44;;;;;;;6.85;3.92;;;14.10;84.60;;;;;;5039134;28;20132;-70
2021/09/12 05:32:10;;;;;;;7.22;3.22;;;14.10;85.40;;;;;;5040007;28;20084;-70
2021/09/12 05:34:37;;;;;;;4.85;2.90;;;14.10;84.80;;;;;;5041274;28;20128;-70
2021/09/12 05:37:04;;;;;;;5.80;3.30;;;14.00;85.30;;;;;;5039932;28;20623;-70
2021/09/12 05:39:31;;;;;;;4.57;3.42;;;14.00;84.90;;;;;;5040824;28;20091;-71
2021/09/12 05:42:01;;;;;;;6.90;4.03;;;14.00;85.70;;;;;;5040329;28;20610;-70
2021/09/12 05:44:27;;;;;;;7.22;3.00;;;14.00;86.00;;;;;;5040773;28;20528;-70
2021/09/12 05:46:54;;;;;;;5.55;2.75;;;14.00;85.30;;;;;;5039005;28;20107;-70
2021/09/12 05:49:21;;;;;;;4.93;3.30;;;14.00;85.30;;;;;;5040737;28;20103;-69
2021/09/12 05:51:48;;;;;;;6.00;2.90;;;14.00;85.30;;;;;;5040188;28;20081;-69
2021/09/12 05:54:14;;;;;;;4.47;2.95;;;14.00;85.20;;;;;;5040740;28;20127;-70
2021/09/12 05:56:41;;;;;;;6.55;3.33;;;14.00;85.30;;;;;;5038926;28;20837;-70
2021/09/12 05:59:08;;;;;;;5.22;3.10;;;14.10;85.70;;;;;;5040018;28;20235;-72
2021/09/12 06:01:35;;;;;;;6.38;3.78;;;14.10;85.80;;;;;;5040170;28;20080;-70
2021/09/12 06:04:02;;;;;;;6.45;3.58;;;14.20;85.70;;;;;;5039673;28;20053;-70
2021/09/12 06:06:29;;;;;;;6.82;3.38;;;14.30;86.00;;;;;;5022090;28;20057;-69
2021/09/12 06:08:56;;;;;;;4.90;2.97;;;14.40;85.80;;;;;;5038301;28;20052;-70
2021/09/12 06:11:23;;;;;;;4.13;3.20;;;14.40;85.60;;;;;;5040102;28;20183;-69
2021/09/12 06:13:49;;;;;;;5.95;3.10;;;14.50;85.30;;;;;;5039497;28;20099;-70
2021/09/12 06:16:16;;;;;;;3.60;2.97;;;14.50;85.30;;;;;;5039714;28;20188;-71
2021/09/12 06:18:43;;;;;;;9.27;4.03;;;14.60;85.70;;;;;;5038065;28;20079;-70
2021/09/12 06:21:10;;;;;;;5.90;3.65;;;14.70;85.00;;;;;;5006684;28;20603;-70
2021/09/12 06:23:37;;;;;;;5.00;3.42;;;14.70;84.90;;;;;;5039386;28;20099;-70
2021/09/12 06:26:04;;;;;;;7.93;3.72;;;14.80;85.00;;;;;;5039448;28;20084;-72
2021/09/12 06:28:31;;;;;;;5.85;3.35;;;14.90;84.80;;;;;;5038509;28;20113;-71
2021/09/12 06:30:59;;;;;;;5.72;3.03;;;15.00;84.50;;;;;;5038235;28;20052;-71
2021/09/12 06:33:26;;;;;;;8.45;3.78;;;15.00;84.20;;;;;;5039141;28;20060;-71
2021/09/12 06:35:53;;;;;;;8.50;3.63;;;15.00;84.50;;;;;;5005367;28;20092;-69
2021/09/12 06:38:20;;;;;;;5.78;4.18;;;14.90;84.70;;;;;;5037912;28;20649;-70
2021/09/12 06:40:47;;;;;;;7.03;3.83;;;14.90;84.70;;;;;;5037906;28;20083;-70
2021/09/12 06:43:14;;;;;;;12.05;4.68;;;14.90;85.10;;;;;;5039469;28;20124;-70
2021/09/12 06:45:40;;;;;;;7.85;4.30;;;14.90;85.00;;;;;;5038630;28;20084;-70
2021/09/12 06:48:07;;;;;;;6.15;4.20;;;14.90;85.30;;;;;;5039053;28;20055;-69
2021/09/12 06:50:34;;;;;;;4.97;4.00;;;15.00;85.40;;;;;;5039382;28;20444;-69
2021/09/12 06:53:01;;;;;;;4.80;3.70;;;15.00;85.30;;;;;;5037819;28;20468;-70
2021/09/12 06:55:27;;;;;;;10.88;4.22;;;15.00;85.30;;;;;;5038613;28;20135;-71
2021/09/12 06:57:54;;;;;;;6.60;4.15;;;15.10;85.00;;;;;;5039675;28;20386;-70
2021/09/12 07:00:21;;;;;;;7.15;4.00;;;15.20;84.80;;;;;;5037867;28;20571;-69
2021/09/12 07:02:52;;;;;;;9.10;4.75;;;15.30;85.10;;;;;;5038133;28;20391;-70
2021/09/12 07:05:20;;;;;;;5.72;4.00;;;15.50;84.60;;;;;;5038744;28;20071;-70
2021/09/12 07:07:47;;;;;;;5.80;4.07;;;15.50;84.20;;;;;;5038807;28;20048;-70
2021/09/12 07:10:13;;;;;;;6.63;4.43;;;15.50;83.90;;;;;;5020893;28;20096;-69
2021/09/12 07:12:40;;;;;;;9.20;4.18;;;15.70;83.90;;;;;;5039054;28;20057;-70
2021/09/12 07:15:07;;;;;;;7.65;4.28;;;15.70;83.50;;;;;;5038869;28;20469;-70
2021/09/12 07:17:34;;;;;;;7.30;4.22;;;15.80;83.30;;;;;;5038104;28;20145;-70
2021/09/12 07:20:01;;;;;;;6.78;4.60;;;15.80;83.10;;;;;;5038168;28;20056;-70
2021/09/12 07:22:28;;;;;;;8.75;5.00;;;15.90;83.30;;;;;;5020963;28;20511;-71
2021/09/12 07:24:54;;;;;;;5.13;4.32;;;16.00;83.10;;;;;;5020815;28;20087;-71
2021/09/12 07:27:21;;;;;;;6.13;4.38;;;16.10;83.00;;;;;;5037018;28;20092;-71
2021/09/12 07:30:03;;;;;;;12.10;5.30;;;16.20;82.40;;;;;;5036459;28;20052;-70
2021/09/12 07:32:30;;;;;;;6.07;4.88;;;16.20;82.20;;;;;;5037395;28;20045;-70
2021/09/12 07:34:56;;;;;;;6.82;4.38;;;16.20;82.10;;;;;;5039253;28;20056;-70
2021/09/12 07:37:23;;;;;;;8.98;4.97;;;16.30;81.80;;;;;;5037786;28;20085;-72
2021/09/12 07:39:50;;;;;;;7.32;4.95;;;16.40;81.10;;;;;;5038715;28;20566;-70
2021/09/12 07:42:17;;;;;;;7.45;4.82;;;16.30;80.90;;;;;;5037652;28;20195;-70
2021/09/12 07:44:43;;;;;;;7.43;5.10;;;16.30;81.10;;;;;;5038316;28;20088;-69
2021/09/12 07:47:10;;;;;;;9.75;6.05;;;16.30;81.40;;;;;;5036113;28;20174;-70
2021/09/12 07:49:37;;;;;;;7.55;5.53;;;16.30;81.30;;;;;;5037114;28;20084;-70
2021/09/12 07:52:04;;;;;;;9.48;5.20;;;16.30;81.40;;;;;;5039819;28;20618;-70
2021/09/12 07:54:31;;;;;;;7.93;4.85;;;16.40;81.10;;;;;;5024866;28;20128;-70
2021/09/12 07:56:57;;;;;;;12.25;4.75;;;16.40;81.00;;;;;;5041429;28;20085;-70
2021/09/12 07:59:24;;;;;;;9.05;5.20;;;16.50;80.80;;;;;;5042407;28;20087;-70
2021/09/12 08:01:51;;;;;;;9.07;5.35;;;16.50;80.70;;;;;;5041265;28;20729;-70
2021/09/12 08:04:18;;;;;;;7.97;5.75;;;16.60;80.50;;;;;;5040591;28;20067;-70
2021/09/12 08:06:45;;;;;;;8.88;6.05;;;16.60;80.20;;;;;;5034880;28;20072;-70
2021/09/12 08:09:11;;;;;;;15.20;6.60;;;16.70;80.20;;;;;;5041541;28;20110;-68
2021/09/12 08:11:38;;;;;;;8.15;5.78;;;16.70;79.60;;;;;;5040164;28;20650;-70
2021/09/12 08:14:05;;;;;;;10.98;6.45;;;16.70;79.70;;;;;;5042431;28;20136;-70
2021/09/12 08:16:32;;;;;;;10.52;5.72;;;16.70;79.60;;;;;;5039370;28;20049;-69
2021/09/12 08:18:59;;;;;;;8.27;5.28;;;16.80;79.60;;;;;;5041298;28;20522;-70
2021/09/12 08:21:25;;;;;;;8.73;5.57;;;16.80;79.60;;;;;;5023599;28;20124;-70
2021/09/12 08:23:52;;;;;;;9.30;6.38;;;16.90;79.60;;;;;;5041861;28;20946;-70
2021/09/12 08:26:21;;;;;;;8.82;6.57;;;17.00;79.20;;;;;;5041767;28;20161;-71
2021/09/12 08:28:48;;;;;;;8.52;6.32;;;17.00;79.30;;;;;;5041712;28;20049;-70
2021/09/12 08:31:14;;;;;;;7.22;6.03;;;17.10;79.20;;;;;;5041189;28;20103;-71
2021/09/12 08:33:41;;;;;;;9.13;5.57;;;17.10;78.90;;;;;;5040639;28;20059;-71
2021/09/12 08:36:08;;;;;;;7.75;5.13;;;17.20;78.90;;;;;;5041312;28;20128;-72
2021/09/12 08:38:35;;;;;;;9.30;5.70;;;17.20;78.80;;;;;;5041805;28;20110;-71
2021/09/12 08:41:01;;;;;;;9.35;6.10;;;17.30;78.80;;;;;;5041081;28;20825;-71
2021/09/12 08:43:30;;;;;;;9.02;6.78;;;17.30;78.30;;;;;;5041692;28;20171;-71
2021/09/12 08:45:57;;;;;;;10.00;6.55;;;17.40;77.90;;;;;;5044089;28;20052;-71
2021/09/12 08:48:24;;;;;;;10.93;7.82;;;17.40;78.00;;;;;;5041397;28;20053;-72
2021/09/12 08:50:51;;;;;;;13.13;7.38;;;17.40;77.60;;;;;;5041781;28;20133;-71
2021/09/12 08:53:18;;;;;;;8.35;6.78;;;17.50;77.80;;;;;;5043134;28;20618;-69
2021/09/12 08:55:44;;;;;;;7.28;5.93;;;17.60;77.80;;;;;;5043699;28;20565;-69
2021/09/12 08:58:11;;;;;;;9.32;7.03;;;17.70;77.10;;;;;;5044216;28;20048;-70
2021/09/12 09:00:44;;;;;;;8.95;6.57;;;17.70;76.80;;;;;;5025614;28;20156;-70
2021/09/12 09:03:11;;;;;;;9.48;6.47;;;17.70;76.20;;;;;;5042934;28;20045;-69
2021/09/12 09:05:41;;;;;;;8.95;7.15;;;17.70;76.50;;;;;;5044156;28;20052;-70
2021/09/12 09:08:15;;;;;;;11.40;7.20;;;17.70;76.30;;;;;;5008565;28;20132;-69
2021/09/12 09:10:49;;;;;;;9.48;6.18;;;17.80;76.30;;;;;;5026178;28;20702;-72
2021/09/12 09:13:36;;;;;;;8.85;6.38;;;17.80;75.70;;;;;;5042848;28;20079;-71
2021/09/12 09:16:08;;;;;;;9.05;6.57;;;17.80;76.10;;;;;;5035545;28;20168;-73
2021/09/12 09:18:38;;;;;;;8.00;6.38;;;17.80;76.70;;;;;;5024998;28;20049;-72
2021/09/12 09:21:25;;;;;;;8.25;5.65;;;17.70;76.30;;;;;;5023028;28;20443;-73
2021/09/12 09:24:21;;;;;;;8.13;6.43;;;17.80;76.40;;;;;;5032900;28;20128;-71
2021/09/12 09:26:50;;;;;;;8.98;6.97;;;17.80;76.20;;;;;;5038043;28;20974;-71
2021/09/12 09:29:27;;;;;;;9.20;6.28;;;17.80;76.70;;;;;;5029863;28;20073;-71
2021/09/12 09:32:07;;;;;;;7.53;6.35;;;17.90;76.10;;;;;;5038160;28;20542;-71
2021/09/12 09:34:35;;;;;;;9.02;5.53;;;18.00;75.70;;;;;;5042052;28;20424;-71
2021/09/12 09:37:20;;;;;;;6.65;5.60;;;18.10;75.50;;;;;;5041539;28;20079;-71
2021/09/12 09:39:55;;;;;;;7.60;5.45;;;18.10;74.80;;;;;;5026185;28;20072;-71
2021/09/12 09:42:36;;;;;;;8.75;5.32;;;18.10;75.40;;;;;;5042428;28;20125;-71
2021/09/12 09:45:13;;;;;;;7.40;4.70;;;18.20;75.10;;;;;;5043277;28;20155;-71
2021/09/12 09:47:42;;;;;;;5.60;4.03;;;18.30;75.00;;;;;;5042242;28;20152;-71
2021/09/12 09:50:17;;;;;;;8.15;3.97;;;18.30;74.10;;;;;;5042359;28;20472;-71
2021/09/12 09:52:47;;;;;;;4.05;3.42;;;18.30;74.70;;;;;;5043263;28;20179;-71
2021/09/12 09:55:16;;;;;;;6.88;3.67;;;18.40;74.10;;;;;;5043724;28;20054;-71
2021/09/12 09:57:44;;;;;;;6.72;4.05;;;18.50;74.20;;;;;;5041985;28;20059;-71
2021/09/12 10:00:11;;;;;;;4.72;3.45;;;18.70;73.60;;;;;;5041292;28;20091;-71
2021/09/12 10:02:38;;;;;;;5.82;3.95;;;18.90;73.30;;;;;;5041931;28;20140;-71
2021/09/12 10:05:07;;;;;;;5.60;3.47;;;19.10;72.20;;;;;;5041361;28;20135;-72
2021/09/12 10:07:34;;;;;;;4.85;3.60;;;19.20;71.70;;;;;;5024171;28;20057;-71
2021/09/12 10:10:08;;;;;;;5.07;3.92;;;19.20;71.70;;;;;;5043736;28;20106;-71
2021/09/12 10:12:37;;;;;;;6.15;3.80;;;19.40;72.10;;;;;;5026347;28;20132;-70
2021/09/12 10:15:10;;;;;;;5.57;4.13;;;19.40;72.10;;;;;;5041589;28;20080;-71
2021/09/12 10:17:39;;;;;;;5.60;4.18;;;19.50;70.80;;;;;;5024838;28;20191;-71
2021/09/12 10:20:11;;;;;;;5.13;4.25;;;19.50;70.50;;;;;;5041416;28;20041;-71
2021/09/12 10:22:58;;;;;;;6.90;4.00;;;19.60;70.30;;;;;;5022942;28;20690;-71
2021/09/12 10:25:46;;;;;;;6.07;3.75;;;19.70;69.50;;;;;;5027516;28;20136;-71
2021/09/12 10:28:13;;;;;;;6.50;4.05;;;19.80;70.30;;;;;;5041165;28;20148;-70
2021/09/12 10:30:41;;;;;;;5.80;4.03;;;19.90;70.00;;;;;;5004526;28;20140;-71
2021/09/12 10:33:19;;;;;;;4.65;3.40;;;19.90;69.20;;;;;;5029750;28;20680;-71
2021/09/12 10:35:55;;;;;;;5.30;4.38;;;20.00;68.30;;;;;;5039997;28;20645;-69
2021/09/12 10:38:27;;;;;;;5.03;4.40;;;20.20;69.20;;;;;;5039113;28;20056;-69
2021/09/12 10:41:09;;;;;;;5.87;4.70;;;20.30;67.90;;;;;;5034601;28;20132;-69
2021/09/12 10:43:43;;;;;;;6.28;3.92;;;20.30;66.10;;;;;;5044732;28;20128;-70
2021/09/12 10:46:10;;;;;;;6.25;4.70;;;20.30;67.90;;;;;;5036937;28;20573;-70
2021/09/12 10:48:41;;;;;;;6.18;4.18;;;20.40;68.40;;;;;;5040955;28;20045;-69
2021/09/12 10:51:12;;;;;;;7.60;3.60;;;20.50;68.20;;;;;;5025317;28;20076;-71
2021/09/12 10:56:15;;;;;;;5.47;3.70;;;20.40;66.90;;;;;;5035715;28;20049;-70
2021/09/12 10:58:43;;;;;;;3.90;3.15;;;20.30;67.40;;;;;;5027971;28;20144;-70
2021/09/12 11:01:12;;;;;;;3.83;2.97;;;20.40;67.80;;;;;;5036733;28;20094;-70
2021/09/12 11:03:44;;;;;;;5.18;3.35;;;20.50;67.60;;;;;;5054534;28;20099;-70
2021/09/12 11:06:20;;;;;;;3.97;3.17;;;20.60;65.60;;;;;;5040449;28;20037;-69
2021/09/12 11:08:46;;;;;;;4.00;3.58;;;20.50;65.30;;;;;;5029378;28;20469;-70
2021/09/12 11:11:13;;;;;;;4.00;2.65;;;20.60;65.80;;;;;;5034466;28;20158;-70
2021/09/12 11:13:40;;;;;;;3.42;2.75;;;20.50;65.60;;;;;;5018804;28;20095;-69
2021/09/12 11:16:19;;;;;;;4.00;2.72;;;20.40;65.60;;;;;;5037243;28;20128;-70
2021/09/12 11:18:50;;;;;;;3.88;2.85;;;20.40;65.90;;;;;;5035371;28;20508;-70
2021/09/12 11:21:31;;;;;;;3.75;2.63;;;20.40;65.30;;;;;;5025612;28;20076;-70
2021/09/12 11:24:01;;;;;;;2.83;2.47;;;20.30;65.60;;;;;;5029266;28;20073;-70
2021/09/12 11:26:29;;;;;;;3.53;2.13;;;20.20;66.30;;;;;;5021801;28;20084;-69
2021/09/12 11:29:01;;;;;;;3.42;2.70;;;20.20;66.20;;;;;;5030758;28;20617;-70
2021/09/12 11:31:29;;;;;;;6.68;2.65;;;20.20;66.00;;;;;;5033786;28;20397;-71
2021/09/12 11:33:56;;;;;;;4.63;2.35;;;20.30;67.30;;;;;;5030182;28;20041;-70
2021/09/12 11:36:23;;;;;;;3.13;2.53;;;20.40;66.20;;;;;;5029752;28;20168;-70
2021/09/12 11:38:56;;;;;;;4.28;2.08;;;20.40;66.10;;;;;;5031626;28;20419;-70
2021/09/12 11:41:27;;;;;;;4.88;2.70;;;20.60;65.20;;;;;;5032197;28;20060;-71
2021/09/12 11:43:55;;;;;;;4.05;2.13;;;20.70;64.20;;;;;;5033568;28;20295;-70
2021/09/12 11:46:22;;;;;;;5.15;2.47;;;20.80;64.50;;;;;;5032213;28;20144;-70
2021/09/12 11:48:53;;;;;;;14.45;10.35;;;20.90;64.20;;;;;;5032274;28;20481;-69
2021/09/12 11:51:26;;;;;;;8.18;3.72;;;21.10;63.30;;;;;;5016974;28;20683;-69
2021/09/12 11:54:17;;;;;;;6.90;3.80;;;21.30;63.60;;;;;;5017641;28;20068;-70
2021/09/12 11:56:52;;;;;;;3.78;2.50;;;21.60;62.00;;;;;;5022276;28;20080;-70
2021/09/12 11:59:18;;;;;;;5.38;2.75;;;21.70;62.60;;;;;;5010592;28;20163;-70
2021/09/12 12:01:47;;;;;;;3.83;2.63;;;22.20;62.30;;;;;;5028447;28;20603;-67
2021/09/12 12:04:15;;;;;;;5.95;3.00;;;22.40;61.70;;;;;;5031126;28;20563;-70
2021/09/12 12:06:48;;;;;;;3.63;2.58;;;22.70;60.80;;;;;;5031222;28;20053;-70
2021/09/12 12:09:18;;;;;;;4.95;2.58;;;23.00;60.00;;;;;;5015620;28;20072;-70
2021/09/12 12:11:46;;;;;;;3.85;2.60;;;23.60;59.60;;;;;;5027213;28;20136;-70
2021/09/12 12:14:24;;;;;;;3.45;2.40;;;24.00;58.30;;;;;;5022689;28;20113;-71
2021/09/12 12:16:52;;;;;;;4.13;2.60;;;24.50;56.40;;;;;;5007993;28;20164;-70
2021/09/12 12:19:19;;;;;;;3.92;2.80;;;24.70;55.20;;;;;;5019656;28;20053;-70
2021/09/12 12:21:50;;;;;;;4.32;3.17;;;24.90;54.20;;;;;;5013397;28;20053;-69
2021/09/12 12:24:21;;;;;;;5.72;2.85;;;25.20;53.20;;;;;;5024461;28;20054;-72
2021/09/12 12:26:52;;;;;;;3.17;2.38;;;25.50;53.40;;;;;;5027647;28;20061;-70
2021/09/12 12:29:27;;;;;;;3.78;2.00;;;25.60;52.10;;;;;;5027253;28;20045;-71
2021/09/12 12:31:54;;;;;;;3.30;2.42;;;25.40;51.80;;;;;;5034979;28;20069;-70
2021/09/12 12:34:45;;;;;;;3.20;2.22;;;25.00;53.40;;;;;;5035734;28;20084;-70
2021/09/12 12:37:15;;;;;;;3.30;2.08;;;24.40;52.30;;;;;;5039962;28;20132;-70
2021/09/12 12:39:42;;;;;;;2.83;2.08;;;24.10;54.50;;;;;;5042076;28;20050;-70
2021/09/12 12:42:09;;;;;;;6.00;3.55;;;23.80;55.20;;;;;;5029218;28;20046;-70
2021/09/12 12:44:44;;;;;;;3.95;2.65;;;23.50;55.40;;;;;;5027951;28;20126;-70
2021/09/12 12:47:17;;;;;;;6.10;2.75;;;23.30;54.60;;;;;;5026837;28;20130;-70
2021/09/12 12:49:43;;;;;;;3.80;3.20;;;23.20;55.90;;;;;;5030173;28;20081;-70
2021/09/12 12:52:12;;;;;;;4.93;2.80;;;23.10;55.60;;;;;;5026244;28;20443;-69
2021/09/12 12:54:40;;;;;;;3.80;2.63;;;22.90;56.10;;;;;;5045952;28;20161;-71